sensor_id;sensor_type;location;lat;lon;timestamp;temperature;humidity
34542;DHT22;20784;51.332;12.410;2022-09-20T00:00:28;11.30;99.90
34542;DHT22;20784;51.332;12.410;2022-09-20T00:03:17;11.40;99.90
34542;DHT22;20784;51.332;12.410;2022-09-20T00:08:52;11.30;99.90
34542;DHT22;20784;51.332;12.410;2022-09-20T00:11:50;11.30;99.90
34542;DHT22;20784;51.332;12.410;2022-09-20T00:14:41;11.30;99.90
34542;DHT22;20784;51.332;12.410;2022-09-20T00:17:11;11.30;99.90
34542;DHT22;20784;51.332;12.410;2022-09-20T00:19:55;11.40;99.90
34542;DHT22;20784;51.332;12.410;2022-09-20T00:22:28;11.40;99.90
34542;DHT22;20784;51.332;12.410;2022-09-20T00:25:08;11.30;99.90
34542;DHT22;20784;51.332;12.410;2022-09-20T00:28:03;11.30;99.90
34542;DHT22;20784;51.332;12.410;2022-09-20T00:30:37;11.20;99.90
34542;DHT22;20784;51.332;12.410;2022-09-20T00:33:06;11.30;99.90
34542;DHT22;20784;51.332;12.410;2022-09-20T00:35:32;11.30;99.90
34542;DHT22;20784;51.332;12.410;2022-09-20T00:37:58;11.30;99.90
34542;DHT22;20784;51.332;12.410;2022-09-20T00:40:27;11.40;99.90
34542;DHT22;20784;51.332;12.410;2022-09-20T00:42:53;11.30;99.90
34542;DHT22;20784;51.332;12.410;2022-09-20T00:45:27;11.30;99.90
34542;DHT22;20784;51.332;12.410;2022-09-20T00:48:03;11.30;99.90
34542;DHT22;20784;51.332;12.410;2022-09-20T00:50:53;11.30;99.90
34542;DHT22;20784;51.332;12.410;2022-09-20T00:53:27;11.30;99.90
34542;DHT22;20784;51.332;12.410;2022-09-20T00:58:31;11.40;99.90
34542;DHT22;20784;51.332;12.410;2022-09-20T01:00:57;11.40;99.90
34542;DHT22;20784;51.332;12.410;2022-09-20T01:06:09;11.40;99.90
34542;DHT22;20784;51.332;12.410;2022-09-20T01:08:41;11.40;99.90
34542;DHT22;20784;51.332;12.410;2022-09-20T01:11:10;11.40;99.90
34542;DHT22;20784;51.332;12.410;2022-09-20T01:13:42;11.50;99.90
34542;DHT22;20784;51.332;12.410;2022-09-20T01:16:14;11.50;99.90
34542;DHT22;20784;51.332;12.410;2022-09-20T01:19:01;11.50;99.90
34542;DHT22;20784;51.332;12.410;2022-09-20T01:21:42;11.50;99.90
34542;DHT22;20784;51.332;12.410;2022-09-20T01:24:30;11.50;99.90
34542;DHT22;20784;51.332;12.410;2022-09-20T01:28:07;11.40;99.90
34542;DHT22;20784;51.332;12.410;2022-09-20T01:30:13;11.40;99.90
34542;DHT22;20784;51.332;12.410;2022-09-20T01:32:55;11.40;99.90
34542;DHT22;20784;51.332;12.410;2022-09-20T01:35:24;11.40;99.90
34542;DHT22;20784;51.332;12.410;2022-09-20T01:43:57;11.30;99.90
34542;DHT22;20784;51.332;12.410;2022-09-20T01:46:45;11.40;99.90
34542;DHT22;20784;51.332;12.410;2022-09-20T02:04:12;11.40;99.90
34542;DHT22;20784;51.332;12.410;2022-09-20T02:12:57;11.40;99.90
34542;DHT22;20784;51.332;12.410;2022-09-20T02:16:03;11.30;99.90
34542;DHT22;20784;51.332;12.410;2022-09-20T02:24:57;11.20;99.90
34542;DHT22;20784;51.332;12.410;2022-09-20T02:30:55;11.30;99.90
34542;DHT22;20784;51.332;12.410;2022-09-20T02:43:22;11.30;99.90
34542;DHT22;20784;51.332;12.410;2022-09-20T02:51:45;11.20;99.90
34542;DHT22;20784;51.332;12.410;2022-09-20T02:54:33;11.10;99.90
34542;DHT22;20784;51.332;12.410;2022-09-20T03:00:15;11.30;99.90
34542;DHT22;20784;51.332;12.410;2022-09-20T03:03:12;11.20;99.90
34542;DHT22;20784;51.332;12.410;2022-09-20T03:19:15;11.20;99.90
34542;DHT22;20784;51.332;12.410;2022-09-20T03:39:53;11.10;99.90
34542;DHT22;20784;51.332;12.410;2022-09-20T03:42:33;11.10;99.90
34542;DHT22;20784;51.332;12.410;2022-09-20T04:03:06;11.00;99.90
34542;DHT22;20784;51.332;12.410;2022-09-20T04:06:08;11.00;99.90
34542;DHT22;20784;51.332;12.410;2022-09-20T04:11:58;11.00;99.90
34542;DHT22;20784;51.332;12.410;2022-09-20T04:14:53;11.00;99.90
34542;DHT22;20784;51.332;12.410;2022-09-20T04:22:49;11.00;99.90
34542;DHT22;20784;51.332;12.410;2022-09-20T04:25:45;10.90;99.90
34542;DHT22;20784;51.332;12.410;2022-09-20T04:28:29;11.00;99.90
34542;DHT22;20784;51.332;12.410;2022-09-20T05:05:28;10.90;99.90
34542;DHT22;20784;51.332;12.410;2022-09-20T05:08:21;10.90;99.90
34542;DHT22;20784;51.332;12.410;2022-09-20T05:11:00;10.90;99.90
34542;DHT22;20784;51.332;12.410;2022-09-20T05:30:48;10.90;99.90
34542;DHT22;20784;51.332;12.410;2022-09-20T05:36:55;10.90;99.90
34542;DHT22;20784;51.332;12.410;2022-09-20T05:39:40;11.00;99.90
34542;DHT22;20784;51.332;12.410;2022-09-20T05:45:19;11.00;99.90
34542;DHT22;20784;51.332;12.410;2022-09-20T05:57:34;10.80;99.90
34542;DHT22;20784;51.332;12.410;2022-09-20T06:00:18;11.00;99.90
34542;DHT22;20784;51.332;12.410;2022-09-20T06:17:06;11.20;99.90
34542;DHT22;20784;51.332;12.410;2022-09-20T06:22:48;11.20;99.90
34542;DHT22;20784;51.332;12.410;2022-09-20T06:25:33;11.20;99.90
34542;DHT22;20784;51.332;12.410;2022-09-20T06:28:18;11.30;99.90
34542;DHT22;20784;51.332;12.410;2022-09-20T06:30:48;11.30;99.90
34542;DHT22;20784;51.332;12.410;2022-09-20T06:33:29;11.30;99.90
34542;DHT22;20784;51.332;12.410;2022-09-20T06:36:07;11.40;99.90
34542;DHT22;20784;51.332;12.410;2022-09-20T06:39:22;11.50;99.90
34542;DHT22;20784;51.332;12.410;2022-09-20T06:42:14;11.50;99.90
34542;DHT22;20784;51.332;12.410;2022-09-20T06:44:39;11.60;99.90
34542;DHT22;20784;51.332;12.410;2022-09-20T06:47:17;11.60;99.90
34542;DHT22;20784;51.332;12.410;2022-09-20T06:49:48;11.60;99.90
34542;DHT22;20784;51.332;12.410;2022-09-20T06:52:19;11.60;99.90
34542;DHT22;20784;51.332;12.410;2022-09-20T06:54:46;11.60;99.90
34542;DHT22;20784;51.332;12.410;2022-09-20T06:57:36;11.60;99.90
34542;DHT22;20784;51.332;12.410;2022-09-20T07:00:06;11.60;99.90
34542;DHT22;20784;51.332;12.410;2022-09-20T07:02:42;11.50;99.90
34542;DHT22;20784;51.332;12.410;2022-09-20T07:05:17;11.60;99.90
34542;DHT22;20784;51.332;12.410;2022-09-20T07:08:03;11.60;99.90
34542;DHT22;20784;51.332;12.410;2022-09-20T07:10:32;11.60;99.90
34542;DHT22;20784;51.332;12.410;2022-09-20T07:13:08;11.70;99.90
34542;DHT22;20784;51.332;12.410;2022-09-20T07:15:40;11.80;99.90
34542;DHT22;20784;51.332;12.410;2022-09-20T07:18:06;11.80;99.90
34542;DHT22;20784;51.332;12.410;2022-09-20T07:20:32;11.80;99.90
34542;DHT22;20784;51.332;12.410;2022-09-20T07:23:04;11.90;99.90
34542;DHT22;20784;51.332;12.410;2022-09-20T07:25:30;12.10;99.90
34542;DHT22;20784;51.332;12.410;2022-09-20T07:27:56;12.20;99.90
34542;DHT22;20784;51.332;12.410;2022-09-20T07:30:22;12.20;99.90
34542;DHT22;20784;51.332;12.410;2022-09-20T07:32:51;12.30;99.90
34542;DHT22;20784;51.332;12.410;2022-09-20T07:35:17;12.40;99.90
34542;DHT22;20784;51.332;12.410;2022-09-20T07:37:43;12.40;99.90
34542;DHT22;20784;51.332;12.410;2022-09-20T07:40:10;12.40;99.90
34542;DHT22;20784;51.332;12.410;2022-09-20T07:42:36;12.50;99.90
34542;DHT22;20784;51.332;12.410;2022-09-20T07:45:08;12.60;99.90
34542;DHT22;20784;51.332;12.410;2022-09-20T07:47:36;12.60;99.90
34542;DHT22;20784;51.332;12.410;2022-09-20T07:50:06;12.50;99.90
34542;DHT22;20784;51.332;12.410;2022-09-20T07:52:34;12.50;99.90
34542;DHT22;20784;51.332;12.410;2022-09-20T07:55:02;12.50;99.90
34542;DHT22;20784;51.332;12.410;2022-09-20T07:57:28;12.50;99.90
34542;DHT22;20784;51.332;12.410;2022-09-20T07:59:53;12.50;99.90
34542;DHT22;20784;51.332;12.410;2022-09-20T08:02:19;12.50;99.90
34542;DHT22;20784;51.332;12.410;2022-09-20T08:04:45;12.60;99.90
34542;DHT22;20784;51.332;12.410;2022-09-20T08:07:11;12.50;99.90
34542;DHT22;20784;51.332;12.410;2022-09-20T08:09:37;12.50;99.90
34542;DHT22;20784;51.332;12.410;2022-09-20T08:12:02;12.70;99.90
34542;DHT22;20784;51.332;12.410;2022-09-20T08:14:29;12.80;99.90
34542;DHT22;20784;51.332;12.410;2022-09-20T08:16:55;12.90;99.90
34542;DHT22;20784;51.332;12.410;2022-09-20T08:19:25;13.10;99.90
34542;DHT22;20784;51.332;12.410;2022-09-20T08:21:52;13.20;99.90
34542;DHT22;20784;51.332;12.410;2022-09-20T08:24:18;13.30;99.90
34542;DHT22;20784;51.332;12.410;2022-09-20T08:26:44;13.40;99.90
34542;DHT22;20784;51.332;12.410;2022-09-20T08:29:10;13.50;99.90
34542;DHT22;20784;51.332;12.410;2022-09-20T08:31:37;13.50;99.90
34542;DHT22;20784;51.332;12.410;2022-09-20T08:34:07;13.60;99.90
34542;DHT22;20784;51.332;12.410;2022-09-20T08:36:36;13.90;99.90
34542;DHT22;20784;51.332;12.410;2022-09-20T08:39:03;14.30;99.90
34542;DHT22;20784;51.332;12.410;2022-09-20T08:41:47;14.50;99.90
34542;DHT22;20784;51.332;12.410;2022-09-20T08:44:31;14.50;99.90
34542;DHT22;20784;51.332;12.410;2022-09-20T08:47:08;14.50;99.90
34542;DHT22;20784;51.332;12.410;2022-09-20T08:49:37;14.40;99.90
34542;DHT22;20784;51.332;12.410;2022-09-20T08:52:03;14.20;99.90
34542;DHT22;20784;51.332;12.410;2022-09-20T08:54:33;14.00;99.90
34542;DHT22;20784;51.332;12.410;2022-09-20T08:57:09;14.00;99.90
34542;DHT22;20784;51.332;12.410;2022-09-20T08:59:36;14.00;99.90
34542;DHT22;20784;51.332;12.410;2022-09-20T09:02:29;14.00;99.90
34542;DHT22;20784;51.332;12.410;2022-09-20T09:04:55;14.00;99.90
34542;DHT22;20784;51.332;12.410;2022-09-20T09:07:22;14.00;99.90
34542;DHT22;20784;51.332;12.410;2022-09-20T09:09:51;14.00;99.90
34542;DHT22;20784;51.332;12.410;2022-09-20T09:14:56;14.00;99.90
34542;DHT22;20784;51.332;12.410;2022-09-20T09:17:30;13.90;99.90
34542;DHT22;20784;51.332;12.410;2022-09-20T09:20:19;13.80;99.90
34542;DHT22;20784;51.332;12.410;2022-09-20T09:23:03;13.60;99.90
34542;DHT22;20784;51.332;12.410;2022-09-20T09:25:31;13.70;99.90
34542;DHT22;20784;51.332;12.410;2022-09-20T09:27:59;13.80;99.90
34542;DHT22;20784;51.332;12.410;2022-09-20T09:30:44;14.10;99.90
34542;DHT22;20784;51.332;12.410;2022-09-20T09:33:32;14.20;99.90
34542;DHT22;20784;51.332;12.410;2022-09-20T09:36:06;14.10;99.90
34542;DHT22;20784;51.332;12.410;2022-09-20T09:38:38;14.20;99.90
34542;DHT22;20784;51.332;12.410;2022-09-20T09:41:28;14.30;99.90
34542;DHT22;20784;51.332;12.410;2022-09-20T09:44:15;14.70;99.90
34542;DHT22;20784;51.332;12.410;2022-09-20T09:46:45;15.30;99.90
34542;DHT22;20784;51.332;12.410;2022-09-20T09:52:14;16.20;99.90
34542;DHT22;20784;51.332;12.410;2022-09-20T09:54:48;16.40;99.90
34542;DHT22;20784;51.332;12.410;2022-09-20T10:00:11;16.40;99.90
34542;DHT22;20784;51.332;12.410;2022-09-20T10:05:40;16.20;99.90
34542;DHT22;20784;51.332;12.410;2022-09-20T10:08:14;16.00;99.90
34542;DHT22;20784;51.332;12.410;2022-09-20T10:19:59;18.00;99.90
34542;DHT22;20784;51.332;12.410;2022-09-20T10:25:31;19.20;99.90
34542;DHT22;20784;51.332;12.410;2022-09-20T10:28:29;19.80;99.90
34542;DHT22;20784;51.332;12.410;2022-09-20T10:31:27;19.60;99.90
34542;DHT22;20784;51.332;12.410;2022-09-20T10:34:22;18.90;99.90
34542;DHT22;20784;51.332;12.410;2022-09-20T10:36:58;18.40;99.90
34542;DHT22;20784;51.332;12.410;2022-09-20T10:39:39;17.90;99.90
34542;DHT22;20784;51.332;12.410;2022-09-20T10:42:35;17.60;99.90
34542;DHT22;20784;51.332;12.410;2022-09-20T10:51:03;19.40;99.90
34542;DHT22;20784;51.332;12.410;2022-09-20T10:53:59;19.80;99.90
34542;DHT22;20784;51.332;12.410;2022-09-20T10:56:41;20.00;99.90
34542;DHT22;20784;51.332;12.410;2022-09-20T10:59:19;19.70;99.90
34542;DHT22;20784;51.332;12.410;2022-09-20T11:04:28;19.30;99.90
34542;DHT22;20784;51.332;12.410;2022-09-20T11:07:18;19.60;99.90
34542;DHT22;20784;51.332;12.410;2022-09-20T11:09:54;19.60;99.90
34542;DHT22;20784;51.332;12.410;2022-09-20T11:12:30;19.30;99.90
34542;DHT22;20784;51.332;12.410;2022-09-20T11:15:04;18.90;99.90
34542;DHT22;20784;51.332;12.410;2022-09-20T11:17:39;18.50;99.90
34542;DHT22;20784;51.332;12.410;2022-09-20T11:20:23;18.30;99.90
34542;DHT22;20784;51.332;12.410;2022-09-20T11:25:44;17.50;99.90
34542;DHT22;20784;51.332;12.410;2022-09-20T11:28:25;18.00;99.90
34542;DHT22;20784;51.332;12.410;2022-09-20T11:33:52;19.50;99.90
34542;DHT22;20784;51.332;12.410;2022-09-20T11:36:40;20.20;99.90
34542;DHT22;20784;51.332;12.410;2022-09-20T11:39:22;20.90;99.90
34542;DHT22;20784;51.332;12.410;2022-09-20T11:41:54;21.30;99.90
34542;DHT22;20784;51.332;12.410;2022-09-20T11:44:20;21.70;99.90
34542;DHT22;20784;51.332;12.410;2022-09-20T11:55:07;20.20;99.90
34542;DHT22;20784;51.332;12.410;2022-09-20T11:57:35;19.60;99.90
34542;DHT22;20784;51.332;12.410;2022-09-20T12:00:04;19.30;99.90
34542;DHT22;20784;51.332;12.410;2022-09-20T12:02:50;18.90;99.90
34542;DHT22;20784;51.332;12.410;2022-09-20T12:05:40;18.90;99.90
34542;DHT22;20784;51.332;12.410;2022-09-20T12:08:35;19.20;99.90
34542;DHT22;20784;51.332;12.410;2022-09-20T12:11:05;19.80;99.90
34542;DHT22;20784;51.332;12.410;2022-09-20T12:13:34;20.20;99.90
34542;DHT22;20784;51.332;12.410;2022-09-20T12:16:17;20.50;99.90
34542;DHT22;20784;51.332;12.410;2022-09-20T12:19:12;20.90;99.90
34542;DHT22;20784;51.332;12.410;2022-09-20T12:24:37;21.00;99.90
34542;DHT22;20784;51.332;12.410;2022-09-20T12:30:19;21.90;99.90
34542;DHT22;20784;51.332;12.410;2022-09-20T12:32:51;22.20;99.90
34542;DHT22;20784;51.332;12.410;2022-09-20T12:41:02;21.90;99.90
34542;DHT22;20784;51.332;12.410;2022-09-20T12:43:31;21.30;99.90
34542;DHT22;20784;51.332;12.410;2022-09-20T12:46:00;20.70;99.90
34542;DHT22;20784;51.332;12.410;2022-09-20T12:52:00;20.10;99.90
34542;DHT22;20784;51.332;12.410;2022-09-20T12:54:53;20.50;99.90
34542;DHT22;20784;51.332;12.410;2022-09-20T12:57:30;20.80;99.90
34542;DHT22;20784;51.332;12.410;2022-09-20T13:00:05;20.70;99.90
34542;DHT22;20784;51.332;12.410;2022-09-20T13:05:44;20.60;99.90
34542;DHT22;20784;51.332;12.410;2022-09-20T13:08:17;20.80;99.90
34542;DHT22;20784;51.332;12.410;2022-09-20T13:14:01;21.10;99.90
34542;DHT22;20784;51.332;12.410;2022-09-20T13:16:53;21.00;99.90
34542;DHT22;20784;51.332;12.410;2022-09-20T13:19:23;20.90;99.90
34542;DHT22;20784;51.332;12.410;2022-09-20T13:24:27;21.20;99.90
34542;DHT22;20784;51.332;12.410;2022-09-20T13:27:05;21.10;99.90
34542;DHT22;20784;51.332;12.410;2022-09-20T13:29:43;20.90;99.90
34542;DHT22;20784;51.332;12.410;2022-09-20T13:32:29;20.70;99.90
34542;DHT22;20784;51.332;12.410;2022-09-20T13:38:03;20.30;99.90
34542;DHT22;20784;51.332;12.410;2022-09-20T13:40:37;20.20;99.90
34542;DHT22;20784;51.332;12.410;2022-09-20T13:43:25;20.30;99.90
34542;DHT22;20784;51.332;12.410;2022-09-20T13:45:57;20.20;99.90
34542;DHT22;20784;51.332;12.410;2022-09-20T13:48:27;20.40;99.90
34542;DHT22;20784;51.332;12.410;2022-09-20T13:50:54;20.40;99.90
34542;DHT22;20784;51.332;12.410;2022-09-20T13:53:22;20.30;99.90
34542;DHT22;20784;51.332;12.410;2022-09-20T13:55:51;20.20;99.90
34542;DHT22;20784;51.332;12.410;2022-09-20T13:58:26;20.20;99.90
34542;DHT22;20784;51.332;12.410;2022-09-20T14:01:03;20.20;99.90
34542;DHT22;20784;51.332;12.410;2022-09-20T14:03:32;19.90;99.90
34542;DHT22;20784;51.332;12.410;2022-09-20T14:06:03;19.70;99.90
34542;DHT22;20784;51.332;12.410;2022-09-20T14:08:40;19.70;99.90
34542;DHT22;20784;51.332;12.410;2022-09-20T14:11:14;19.50;99.90
34542;DHT22;20784;51.332;12.410;2022-09-20T14:14:02;19.30;99.90
34542;DHT22;20784;51.332;12.410;2022-09-20T14:16:33;19.00;99.90
34542;DHT22;20784;51.332;12.410;2022-09-20T14:19:10;18.70;99.90
34542;DHT22;20784;51.332;12.410;2022-09-20T14:21:39;18.40;99.90
34542;DHT22;20784;51.332;12.410;2022-09-20T14:24:28;18.10;99.90
34542;DHT22;20784;51.332;12.410;2022-09-20T14:27:20;18.10;99.90
34542;DHT22;20784;51.332;12.410;2022-09-20T14:29:48;18.10;99.90
34542;DHT22;20784;51.332;12.410;2022-09-20T14:40:20;18.00;99.90
34542;DHT22;20784;51.332;12.410;2022-09-20T14:42:53;18.10;99.90
34542;DHT22;20784;51.332;12.410;2022-09-20T14:45:31;17.90;99.90
34542;DHT22;20784;51.332;12.410;2022-09-20T14:50:40;17.90;99.90
34542;DHT22;20784;51.332;12.410;2022-09-20T14:55:39;17.90;99.90
34542;DHT22;20784;51.332;12.410;2022-09-20T14:58:13;17.80;99.90
34542;DHT22;20784;51.332;12.410;2022-09-20T15:03:14;17.70;99.90
34542;DHT22;20784;51.332;12.410;2022-09-20T15:05:44;17.60;99.90
34542;DHT22;20784;51.332;12.410;2022-09-20T15:08:13;17.50;99.90
34542;DHT22;20784;51.332;12.410;2022-09-20T15:10:40;17.40;99.90
34542;DHT22;20784;51.332;12.410;2022-09-20T15:13:12;17.20;99.90
34542;DHT22;20784;51.332;12.410;2022-09-20T15:15:38;17.20;99.90
34542;DHT22;20784;51.332;12.410;2022-09-20T15:18:29;17.10;99.90
34542;DHT22;20784;51.332;12.410;2022-09-20T15:21:01;17.20;99.90
34542;DHT22;20784;51.332;12.410;2022-09-20T15:23:29;17.10;99.90
34542;DHT22;20784;51.332;12.410;2022-09-20T15:26:12;17.00;99.90
34542;DHT22;20784;51.332;12.410;2022-09-20T15:28:52;17.00;99.90
34542;DHT22;20784;51.332;12.410;2022-09-20T15:31:21;16.90;99.90
34542;DHT22;20784;51.332;12.410;2022-09-20T15:33:49;17.00;99.90
34542;DHT22;20784;51.332;12.410;2022-09-20T15:36:20;16.90;99.90
34542;DHT22;20784;51.332;12.410;2022-09-20T15:38:50;16.90;99.90
34542;DHT22;20784;51.332;12.410;2022-09-20T15:41:20;16.80;99.90
34542;DHT22;20784;51.332;12.410;2022-09-20T15:43:49;16.80;99.90
34542;DHT22;20784;51.332;12.410;2022-09-20T15:46:46;16.80;99.90
34542;DHT22;20784;51.332;12.410;2022-09-20T15:49:23;16.60;99.90
34542;DHT22;20784;51.332;12.410;2022-09-20T15:51:59;16.60;99.90
34542;DHT22;20784;51.332;12.410;2022-09-20T15:54:28;16.60;99.90
34542;DHT22;20784;51.332;12.410;2022-09-20T15:57:00;16.40;99.90
34542;DHT22;20784;51.332;12.410;2022-09-20T15:59:31;16.40;99.90
34542;DHT22;20784;51.332;12.410;2022-09-20T16:02:02;16.40;99.90
34542;DHT22;20784;51.332;12.410;2022-09-20T16:04:30;16.40;99.90
34542;DHT22;20784;51.332;12.410;2022-09-20T16:06:59;16.40;99.90
34542;DHT22;20784;51.332;12.410;2022-09-20T16:09:27;16.50;99.90
34542;DHT22;20784;51.332;12.410;2022-09-20T16:12:06;16.50;99.90
34542;DHT22;20784;51.332;12.410;2022-09-20T16:15:00;16.40;99.90
34542;DHT22;20784;51.332;12.410;2022-09-20T16:17:48;16.40;99.90
34542;DHT22;20784;51.332;12.410;2022-09-20T16:20:34;16.20;99.90
34542;DHT22;20784;51.332;12.410;2022-09-20T16:23:18;16.20;99.90
34542;DHT22;20784;51.332;12.410;2022-09-20T16:25:49;16.10;99.90
34542;DHT22;20784;51.332;12.410;2022-09-20T16:28:21;16.20;99.90
34542;DHT22;20784;51.332;12.410;2022-09-20T16:30:59;16.10;99.90
34542;DHT22;20784;51.332;12.410;2022-09-20T16:33:29;16.10;99.90
34542;DHT22;20784;51.332;12.410;2022-09-20T16:36:00;15.90;99.90
34542;DHT22;20784;51.332;12.410;2022-09-20T16:38:26;15.80;99.90
34542;DHT22;20784;51.332;12.410;2022-09-20T16:40:52;15.60;99.90
34542;DHT22;20784;51.332;12.410;2022-09-20T16:43:20;15.70;99.90
34542;DHT22;20784;51.332;12.410;2022-09-20T16:45:58;15.50;99.90
34542;DHT22;20784;51.332;12.410;2022-09-20T16:48:30;15.50;99.90
34542;DHT22;20784;51.332;12.410;2022-09-20T16:50:57;15.40;99.90
34542;DHT22;20784;51.332;12.410;2022-09-20T16:53:34;15.40;99.90
34542;DHT22;20784;51.332;12.410;2022-09-20T16:56:05;15.30;99.90
34542;DHT22;20784;51.332;12.410;2022-09-20T16:58:32;15.30;99.90
34542;DHT22;20784;51.332;12.410;2022-09-20T17:01:08;15.20;99.90
34542;DHT22;20784;51.332;12.410;2022-09-20T17:03:49;15.10;99.90
34542;DHT22;20784;51.332;12.410;2022-09-20T17:06:24;15.00;99.90
34542;DHT22;20784;51.332;12.410;2022-09-20T17:08:54;14.90;99.90
34542;DHT22;20784;51.332;12.410;2022-09-20T17:11:30;14.80;99.90
34542;DHT22;20784;51.332;12.410;2022-09-20T17:13:58;14.70;99.90
34542;DHT22;20784;51.332;12.410;2022-09-20T17:16:43;14.60;99.90
34542;DHT22;20784;51.332;12.410;2022-09-20T17:19:17;14.50;99.90
34542;DHT22;20784;51.332;12.410;2022-09-20T17:21:45;14.40;99.90
34542;DHT22;20784;51.332;12.410;2022-09-20T17:24:21;14.30;99.90
34542;DHT22;20784;51.332;12.410;2022-09-20T17:26:47;14.20;99.90
34542;DHT22;20784;51.332;12.410;2022-09-20T17:29:19;14.10;99.90
34542;DHT22;20784;51.332;12.410;2022-09-20T17:31:49;14.00;99.90
34542;DHT22;20784;51.332;12.410;2022-09-20T17:34:16;14.00;99.90
34542;DHT22;20784;51.332;12.410;2022-09-20T17:36:46;14.00;99.90
34542;DHT22;20784;51.332;12.410;2022-09-20T17:39:13;13.70;99.90
34542;DHT22;20784;51.332;12.410;2022-09-20T17:41:58;13.80;99.90
34542;DHT22;20784;51.332;12.410;2022-09-20T17:44:29;13.60;99.90
34542;DHT22;20784;51.332;12.410;2022-09-20T17:46:57;13.50;99.90
34542;DHT22;20784;51.332;12.410;2022-09-20T17:49:23;13.50;99.90
34542;DHT22;20784;51.332;12.410;2022-09-20T17:51:52;13.40;99.90
34542;DHT22;20784;51.332;12.410;2022-09-20T17:54:19;13.40;99.90
34542;DHT22;20784;51.332;12.410;2022-09-20T17:56:50;13.30;99.90
34542;DHT22;20784;51.332;12.410;2022-09-20T17:59:17;13.20;99.90
34542;DHT22;20784;51.332;12.410;2022-09-20T18:01:47;13.20;99.90
34542;DHT22;20784;51.332;12.410;2022-09-20T18:04:14;13.10;99.90
34542;DHT22;20784;51.332;12.410;2022-09-20T18:06:50;13.00;99.90
34542;DHT22;20784;51.332;12.410;2022-09-20T18:09:18;12.90;99.90
34542;DHT22;20784;51.332;12.410;2022-09-20T18:11:46;12.80;99.90
34542;DHT22;20784;51.332;12.410;2022-09-20T18:14:14;12.90;99.90
34542;DHT22;20784;51.332;12.410;2022-09-20T18:16:41;12.90;99.90
34542;DHT22;20784;51.332;12.410;2022-09-20T18:19:11;13.00;99.90
34542;DHT22;20784;51.332;12.410;2022-09-20T18:21:41;12.90;99.90
34542;DHT22;20784;51.332;12.410;2022-09-20T18:24:10;12.90;99.90
34542;DHT22;20784;51.332;12.410;2022-09-20T18:26:39;12.80;99.90
34542;DHT22;20784;51.332;12.410;2022-09-20T18:29:08;12.80;99.90
34542;DHT22;20784;51.332;12.410;2022-09-20T18:31:49;12.70;99.90
34542;DHT22;20784;51.332;12.410;2022-09-20T18:34:24;12.70;99.90
34542;DHT22;20784;51.332;12.410;2022-09-20T18:36:58;12.60;99.90
34542;DHT22;20784;51.332;12.410;2022-09-20T18:39:27;12.70;99.90
34542;DHT22;20784;51.332;12.410;2022-09-20T18:41:53;12.70;99.90
34542;DHT22;20784;51.332;12.410;2022-09-20T18:44:20;12.70;99.90
34542;DHT22;20784;51.332;12.410;2022-09-20T18:46:49;12.80;99.90
34542;DHT22;20784;51.332;12.410;2022-09-20T18:49:25;12.80;99.90
34542;DHT22;20784;51.332;12.410;2022-09-20T18:51:51;12.80;99.90
34542;DHT22;20784;51.332;12.410;2022-09-20T18:54:20;12.70;99.90
34542;DHT22;20784;51.332;12.410;2022-09-20T18:56:49;12.80;99.90
34542;DHT22;20784;51.332;12.410;2022-09-20T18:59:26;12.70;99.90
34542;DHT22;20784;51.332;12.410;2022-09-20T19:02:30;12.70;99.90
34542;DHT22;20784;51.332;12.410;2022-09-20T19:05:27;12.70;99.90
34542;DHT22;20784;51.332;12.410;2022-09-20T19:11:51;12.70;99.90
34542;DHT22;20784;51.332;12.410;2022-09-20T19:20:46;12.50;99.90
34542;DHT22;20784;51.332;12.410;2022-09-20T19:23:44;12.50;99.90
34542;DHT22;20784;51.332;12.410;2022-09-20T19:26:43;12.50;99.90
34542;DHT22;20784;51.332;12.410;2022-09-20T19:31:42;12.40;99.90
34542;DHT22;20784;51.332;12.410;2022-09-20T19:34:17;12.50;99.90
34542;DHT22;20784;51.332;12.410;2022-09-20T19:44:55;12.60;99.90
34542;DHT22;20784;51.332;12.410;2022-09-20T19:50:40;12.60;99.90
34542;DHT22;20784;51.332;12.410;2022-09-20T19:53:12;12.60;99.90
34542;DHT22;20784;51.332;12.410;2022-09-20T19:55:45;12.60;99.90
34542;DHT22;20784;51.332;12.410;2022-09-20T19:58:12;12.60;99.90
34542;DHT22;20784;51.332;12.410;2022-09-20T20:00:41;12.50;99.90
34542;DHT22;20784;51.332;12.410;2022-09-20T20:03:10;12.40;99.90
34542;DHT22;20784;51.332;12.410;2022-09-20T20:05:39;12.30;99.90
34542;DHT22;20784;51.332;12.410;2022-09-20T20:08:15;12.20;99.90
34542;DHT22;20784;51.332;12.410;2022-09-20T20:22:34;12.20;99.90
34542;DHT22;20784;51.332;12.410;2022-09-20T20:25:03;12.20;99.90
34542;DHT22;20784;51.332;12.410;2022-09-20T20:27:32;12.20;99.90
34542;DHT22;20784;51.332;12.410;2022-09-20T20:30:00;12.10;99.90
34542;DHT22;20784;51.332;12.410;2022-09-20T20:32:29;12.10;99.90
34542;DHT22;20784;51.332;12.410;2022-09-20T20:34:58;12.00;99.90
34542;DHT22;20784;51.332;12.410;2022-09-20T20:37:24;11.90;99.90
34542;DHT22;20784;51.332;12.410;2022-09-20T20:39:55;11.90;99.90
34542;DHT22;20784;51.332;12.410;2022-09-20T20:42:26;11.80;99.90
34542;DHT22;20784;51.332;12.410;2022-09-20T20:45:07;11.80;99.90
34542;DHT22;20784;51.332;12.410;2022-09-20T20:47:33;11.70;99.90
34542;DHT22;20784;51.332;12.410;2022-09-20T20:49:59;11.60;99.90
34542;DHT22;20784;51.332;12.410;2022-09-20T20:52:25;11.60;99.90
34542;DHT22;20784;51.332;12.410;2022-09-20T20:54:57;11.50;99.90
34542;DHT22;20784;51.332;12.410;2022-09-20T20:57:25;11.50;99.90
34542;DHT22;20784;51.332;12.410;2022-09-20T20:59:50;11.60;99.90
34542;DHT22;20784;51.332;12.410;2022-09-20T21:02:16;11.50;99.90
34542;DHT22;20784;51.332;12.410;2022-09-20T21:04:42;11.60;99.90
34542;DHT22;20784;51.332;12.410;2022-09-20T21:07:11;11.50;99.90
34542;DHT22;20784;51.332;12.410;2022-09-20T21:09:36;11.60;99.90
34542;DHT22;20784;51.332;12.410;2022-09-20T21:12:04;11.60;99.90
34542;DHT22;20784;51.332;12.410;2022-09-20T21:14:30;11.50;99.90
34542;DHT22;20784;51.332;12.410;2022-09-20T21:16:58;11.50;99.90
34542;DHT22;20784;51.332;12.410;2022-09-20T21:19:26;11.50;99.90
34542;DHT22;20784;51.332;12.410;2022-09-20T21:21:52;11.60;99.90
34542;DHT22;20784;51.332;12.410;2022-09-20T21:24:21;11.70;99.90
34542;DHT22;20784;51.332;12.410;2022-09-20T21:26:47;11.60;99.90
34542;DHT22;20784;51.332;12.410;2022-09-20T21:29:14;11.70;99.90
34542;DHT22;20784;51.332;12.410;2022-09-20T21:31:42;11.80;99.90